Latest Weather Observations for Bickley

IDW60901

Issued at 1:51 pm WST Thursday 8 December 2016 (issued every 10 minutes, with the page automatically refreshed every 10 minutes)

About weather observations | Map of Perth area stations | Latest observations for Perth area | Other Formats
Station Details ID: 009240 Name: BICKLEY Lat: -32.01 Lon: 116.14 Height: 384.0 m
Data from the previous 72 hours. | See also: Recent months at Bickley
Date/Time
WST
Temp
°C
App
Temp
°C
Dew
Point
°C
Rel
Hum
%
Delta-T
°C
Wind Press
QNH
hPa
Press
MSL
hPa
Rain since
9am
mm
Dir  Spd
km/h
Gust
km/h
Spd
kts
Gust
kts
08/01:30pm 25.6 20.5 1.0 20 11.8 E 17 28 9 15 - - 0.0
08/01:00pm 25.2 19.4 0.0 19 11.8 E 20 43 11 23 - - 0.0
08/12:30pm 24.3 19.4 1.9 23 10.8 E 17 33 9 18 - - 0.0
08/12:00pm 23.8 18.5 3.2 26 10.2 E 20 35 11 19 - - 0.0
08/11:30am 22.5 17.4 3.1 28 9.5 ESE 19 35 10 19 - - 0.0
08/11:00am 22.0 17.4 3.6 30 9.0 ESE 17 28 9 15 - - 0.0
08/10:30am 21.0 15.8 3.7 32 8.5 E 20 41 11 22 - - 0.0
08/10:00am 19.8 14.4 4.7 37 7.5 E 22 39 12 21 - - 0.0
08/09:30am 18.5 13.8 5.0 41 6.6 E 19 33 10 18 - - 0.0
08/09:00am 16.5 10.7 4.5 45 5.8 E 24 43 13 23 - - 0.0
08/08:30am 15.7 10.5 5.3 50 5.0 E 22 44 12 24 - - 0.0
08/08:00am 14.7 8.4 5.5 54 4.5 E 28 48 15 26 - - 0.0
08/07:30am 13.8 6.8 6.2 60 3.7 E 32 54 17 29 - - 0.0
08/07:00am 12.3 5.3 6.1 66 3.0 E 32 52 17 28 - - 0.0
08/06:30am 11.5 4.5 6.2 70 2.5 E 32 52 17 28 - - 0.0
08/06:01am 10.6 3.6 5.8 72 2.3 E 32 52 17 28 - - 0.0
08/06:00am 10.5 3.4 5.7 72 2.3 E 32 48 17 26 - - 0.0
08/05:33am 9.9 3.5 5.3 73 2.1 E 28 46 15 25 - - 0.0
08/05:30am 9.8 3.8 5.2 73 2.1 E 26 43 14 23 - - 0.0
08/05:00am 9.9 3.5 5.1 72 2.2 E 28 46 15 25 - - 0.0
08/04:49am 10.0 3.6 5.2 72 2.2 E 28 46 15 25 - - 0.0
08/04:30am 10.1 4.4 5.1 71 2.3 E 24 43 13 23 - - 0.0
08/04:01am 10.5 4.1 5.1 69 2.5 E 28 52 15 28 - - 0.0
08/04:00am 10.6 4.6 5.2 69 2.5 E 26 48 14 26 - - 0.0
08/03:30am 11.0 5.3 5.1 67 2.8 ESE 24 44 13 24 - - 0.0
08/03:00am 11.3 5.2 5.0 65 2.9 ESE 26 44 14 24 - - 0.0
08/02:30am 11.8 5.7 5.0 63 3.2 ESE 26 44 14 24 - - 0.0
08/02:00am 12.3 6.2 5.0 61 3.4 ESE 26 46 14 25 - - 0.0
08/01:30am 12.9 6.5 5.1 59 3.7 ESE 28 48 15 26 - - 0.0
08/01:00am 13.6 7.1 4.7 55 4.2 ESE 28 44 15 24 - - 0.0
08/12:30am 14.4 8.1 3.8 49 4.9 ESE 26 46 14 25 - - 0.0
08/12:22am 14.7 8.0 3.5 47 5.2 ESE 28 48 15 26 - - 0.0
08/12:00am 15.4 9.5 1.9 40 6.1 ESE 22 46 12 25 - - 0.0
 
Date/Time
WST
Temp
°C
App
Temp
°C
Dew
Point
°C
Rel
Hum
%
Delta-T
°C
Wind Press
QNH
hPa
Press
MSL
hPa
Rain since
9am
mm
Dir  Spd
km/h
Gust
km/h
Spd
kts
Gust
kts
07/11:30pm 15.9 10.3 1.2 37 6.6 ESE 20 39 11 21 - - 0.0
07/11:00pm 16.3 11.1 0.4 34 7.0 ESE 17 30 9 16 - - 0.0
07/10:30pm 17.2 11.5 0.4 32 7.5 SE 20 33 11 18 - - 0.0
07/10:00pm 17.7 12.0 0.4 31 7.7 SE 20 33 11 18 - - 0.0
07/09:30pm 17.8 12.2 0.9 32 7.6 SE 20 32 11 17 - - 0.0
07/09:00pm 17.2 12.6 3.5 40 6.5 SE 17 24 9 13 - - 0.0
07/08:30pm 16.8 13.1 6.3 50 5.2 SSE 15 20 8 11 - - 0.0
07/08:00pm 17.3 14.2 7.4 52 5.1 SSW 13 20 7 11 - - 0.0
07/07:30pm 18.1 14.6 7.2 49 5.6 SSW 15 20 8 11 - - 0.0
07/07:00pm 18.8 15.6 8.5 51 5.4 SW 15 26 8 14 - - 0.0
07/06:30pm 19.9 16.4 8.6 48 6.0 SW 17 24 9 13 - - 0.0
07/06:00pm 21.1 17.0 8.0 43 6.9 SW 19 26 10 14 - - 0.0
07/05:30pm 21.7 18.0 7.9 41 7.3 WSW 17 28 9 15 - - 0.0
07/05:00pm 22.4 18.8 8.5 41 7.5 W 17 30 9 16 - - 0.0
07/04:30pm 22.8 19.3 8.9 41 7.6 W 17 28 9 15 - - 0.0
07/04:00pm 23.2 19.8 9.2 41 7.7 WSW 17 30 9 16 - - 0.0
07/03:30pm 23.4 19.3 8.7 39 8.0 WSW 20 32 11 17 - - 0.0
07/03:00pm 22.8 20.0 8.5 40 7.7 SW 13 26 7 14 - - 0.0
07/02:30pm 23.1 19.0 6.0 33 8.8 WSW 17 30 9 16 - - 0.0
07/02:00pm 23.0 19.2 5.9 33 8.8 SW 15 28 8 15 - - 0.0
07/01:30pm 22.6 19.1 5.5 33 8.7 SSW 13 22 7 12 - - 0.0
07/01:00pm 22.0 18.4 6.7 37 8.0 SSW 15 32 8 17 - - 0.0
07/12:30pm 21.4 17.2 7.6 41 7.3 SSW 19 33 10 18 - - 0.0
07/12:00pm 20.6 16.2 7.2 42 7.0 SW 20 35 11 19 - - 0.0
07/11:30am 20.8 17.1 8.1 44 6.7 SSW 17 28 9 15 - - 0.0
07/11:00am 19.9 16.4 8.6 48 6.0 SW 17 30 9 16 - - 0.0
07/10:30am 18.9 15.2 10.2 57 4.7 SSW 20 41 11 22 - - 0.0
07/10:00am 18.0 14.1 10.9 63 3.9 SW 22 33 12 18 - - 0.0
07/09:30am 17.2 14.2 12.1 72 2.9 SW 19 35 10 19 - - 0.0
07/09:00am 16.7 14.2 13.4 81 1.9 SW 19 33 10 18 - - 0.0
07/08:30am 15.2 12.4 13.1 87 1.2 SW 20 35 11 19 - - 0.0
07/08:00am 16.9 13.6 11.6 71 2.9 WSW 20 33 11 18 - - 0.0
07/07:30am 17.0 14.2 11.5 70 3.0 WSW 17 39 9 21 - - 0.0
07/07:00am 16.5 14.7 12.1 75 2.5 WSW 13 22 7 12 - - 0.0
07/06:30am 15.8 12.8 12.0 78 2.1 WSW 19 30 10 16 - - 0.0
07/06:00am 15.1 11.7 11.3 78 2.1 WSW 20 30 11 16 - - 0.0
07/05:30am 15.0 11.8 10.0 72 2.7 WSW 17 30 9 16 - - 0.0
07/05:00am 14.7 11.2 10.1 74 2.4 WSW 19 32 10 17 - - 0.0
07/04:30am 14.4 11.2 9.8 74 2.4 WSW 17 28 9 15 - - 0.0
07/04:00am 14.8 12.1 10.2 74 2.5 WSW 15 26 8 14 - - 0.0
07/03:30am 14.6 11.8 10.0 74 2.4 WSW 15 26 8 14 - - 0.0
07/03:00am 14.6 11.6 10.6 77 2.1 WSW 17 30 9 16 - - 0.0
07/02:30am 14.6 11.9 10.2 75 2.3 W 15 24 8 13 - - 0.0
07/02:00am 14.7 11.6 10.3 75 2.3 WSW 17 28 9 15 - - 0.0
07/01:30am 14.4 12.2 10.8 79 1.9 WSW 13 24 7 13 - - 0.0
07/01:00am 13.6 11.4 10.8 83 1.5 WSW 13 17 7 9 - - 0.0
07/12:30am 13.1 10.8 10.3 83 1.5 WSW 13 20 7 11 - - 0.0
07/12:00am 13.5 11.3 10.7 83 1.5 WSW 13 20 7 11 - - 0.0
 
Date/Time
WST
Temp
°C
App
Temp
°C
Dew
Point
°C
Rel
Hum
%
Delta-T
°C
Wind Press
QNH
hPa
Press
MSL
hPa
Rain since
9am
mm
Dir  Spd
km/h
Gust
km/h
Spd
kts
Gust
kts
06/11:30pm 13.7 11.5 10.7 82 1.6 WSW 13 20 7 11 - - 0.0
06/11:00pm 13.8 11.5 10.6 81 1.7 WSW 13 22 7 12 - - 0.0
06/10:30pm 14.3 12.3 11.5 83 1.5 WSW 13 22 7 12 - - 0.0
06/10:00pm 14.0 11.9 11.0 82 1.6 WSW 13 20 7 11 - - 0.0
06/09:30pm 14.1 11.2 10.9 81 1.7 SW 17 28 9 15 - - 0.0
06/09:00pm 14.3 10.9 10.7 79 1.9 WSW 19 30 10 16 - - 0.0
06/08:30pm 14.6 11.0 10.4 76 2.2 WSW 20 33 11 18 - - 0.0
06/08:00pm 14.9 11.1 9.9 72 2.7 WSW 20 30 11 16 - - 0.0
06/07:30pm 15.6 12.0 9.7 68 3.1 WSW 19 28 10 15 - - 0.0
06/07:00pm 16.6 13.3 9.5 63 3.8 WSW 17 28 9 15 - - 0.0
06/06:30pm 17.5 13.8 9.4 59 4.3 WSW 19 30 10 16 - - 0.0
06/06:00pm 19.2 16.2 9.1 52 5.4 WSW 15 26 8 14 - - 0.0
06/05:30pm 19.8 15.9 8.5 48 6.0 WSW 19 33 10 18 - - 0.0
06/05:00pm 20.2 16.5 7.9 45 6.5 WSW 17 30 9 16 - - 0.0
06/04:30pm 20.6 16.7 8.6 46 6.4 SW 19 30 10 16 - - 0.0
06/04:00pm 21.7 18.2 8.9 44 6.9 WSW 17 30 9 16 - - 0.0
06/03:30pm 21.5 18.1 9.1 45 6.7 WSW 17 32 9 17 - - 0.0
06/03:00pm 21.8 17.1 9.3 45 6.8 WSW 24 35 13 19 - - 0.0
06/02:30pm 22.3 17.6 9.1 43 7.2 WSW 24 39 13 21 - - 0.0
06/02:00pm 22.4 18.2 9.9 45 6.9 WSW 22 35 12 19 - - 0.0
06/01:30pm 22.8 18.6 9.6 43 7.3 WSW 22 33 12 18 - - 0.0
06/01:00pm 22.7 18.8 9.5 43 7.3 WSW 20 32 11 17 - - 0.0
06/12:30pm 23.1 20.6 8.4 39 7.9 W 11 22 6 12 - - 0.0
06/12:00pm 22.6 19.8 8.7 41 7.5 SW 13 20 7 11 - - 0.0
06/11:30am 22.4 19.9 9.6 44 7.0 WSW 13 24 7 13 - - 0.0
06/11:00am 22.1 20.5 8.6 42 7.3 SW 7 13 4 7 - - 0.0
06/10:30am 21.3 19.6 8.2 43 7.0 SSW 7 17 4 9 - - 0.0
06/10:00am 19.8 17.7 8.2 47 6.1 W 9 13 5 7 - - 0.0
06/09:30am 20.4 18.8 8.7 47 6.3 NE 7 15 4 8 - - 0.0
06/09:00am 19.3 17.4 8.9 51 5.5 SE 9 15 5 8 - - 0.0
06/08:30am 18.4 16.8 10.3 59 4.4 E 9 15 5 8 - - 0.0
06/08:00am 17.6 15.6 10.2 62 4.0 E 11 20 6 11 - - 0.0
06/07:30am 16.0 13.6 10.1 68 3.2 E 13 22 7 12 - - 0.0
06/07:00am 15.2 12.9 10.6 74 2.5 E 13 20 7 11 - - 0.0
06/06:30am 13.7 11.2 10.9 83 1.5 ESE 15 24 8 13 - - 0.0
06/06:00am 12.5 10.3 10.7 89 1.0 E 13 22 7 12 - - 0.0
06/05:30am 11.5 9.1 9.9 90 0.8 ESE 13 20 7 11 - - 0.0
06/05:00am 11.5 8.7 10.1 91 0.7 ESE 15 22 8 12 - - 0.0
06/04:30am 11.4 9.0 10.0 91 0.7 SE 13 24 7 13 - - 0.0
06/04:00am 11.6 8.9 10.2 91 0.7 SSE 15 24 8 13 - - 0.0
06/03:30am 11.7 9.4 10.3 91 0.7 SSE 13 20 7 11 - - 0.0
06/03:00am 12.1 9.5 10.7 91 0.7 SE 15 28 8 15 - - 0.0
06/02:30am 12.2 10.0 10.8 91 0.7 SE 13 24 7 13 - - 0.0
06/02:00am 12.4 10.3 11.0 91 0.7 S 13 20 7 11 - - 0.0
06/01:30am 12.4 9.8 10.8 90 0.9 S 15 22 8 12 - - 0.0
06/01:00am 12.7 9.8 11.1 90 0.9 SSW 17 22 9 12 - - 0.0
06/12:30am 12.8 10.3 11.0 89 1.0 SSW 15 22 8 12 - - 0.0
06/12:00am 12.9 10.3 10.8 87 1.1 SSW 15 24 8 13 - - 0.0
 
Date/Time
WST
Temp
°C
App
Temp
°C
Dew
Point
°C
Rel
Hum
%
Delta-T
°C
Wind Press
QNH
hPa
Press
MSL
hPa
Rain since
9am
mm
Dir  Spd
km/h
Gust
km/h
Spd
kts
Gust
kts
05/11:30pm 13.1 10.1 10.8 86 1.2 SSW 17 28 9 15 - - 0.0
05/11:00pm 13.3 9.9 10.7 84 1.4 SW 19 28 10 15 - - 0.0
05/10:30pm 13.5 9.9 10.5 82 1.6 SSW 20 30 11 16 - - 0.0
05/10:00pm 13.8 10.1 10.2 79 1.9 SW 20 28 11 15 - - 0.0
05/09:30pm 14.2 10.6 10.0 76 2.2 SSW 19 28 10 15 - - 0.0
05/09:00pm 14.4 10.7 9.4 72 2.6 SW 19 28 10 15 - - 0.0
05/08:30pm 14.8 10.5 9.4 70 2.8 SW 22 32 12 17 - - 0.0
05/08:00pm 15.0 10.6 9.1 68 3.1 SW 22 32 12 17 - - 0.0
05/07:30pm 15.6 11.7 9.3 66 3.3 SW 20 35 11 19 - - 0.0
05/07:00pm 16.4 12.5 9.3 63 3.8 SW 20 33 11 18 - - 0.0
05/06:30pm 17.2 13.2 9.1 59 4.3 SW 20 43 11 23 - - 0.0
05/06:00pm 18.4 14.4 9.2 55 4.9 WSW 20 33 11 18 - - 0.0
05/05:30pm 19.0 14.5 8.6 51 5.5 SW 22 43 12 23 - - 0.0
05/05:00pm 19.3 15.5 8.9 51 5.5 SW 19 33 10 18 - - 0.0
05/04:30pm 19.7 15.2 8.4 48 6.0 SW 22 33 12 18 - - 0.0
05/04:00pm 20.8 15.8 8.1 44 6.7 SW 24 39 13 21 - - 0.0
05/03:30pm 21.0 17.2 7.6 42 7.0 SW 17 32 9 17 - - 0.0
05/03:00pm 20.8 16.3 7.1 41 7.1 SW 20 35 11 19 - - 0.0
05/02:30pm 20.9 16.2 6.1 38 7.6 SW 20 33 11 18 - - 0.0
05/02:00pm 22.0 17.2 5.8 35 8.3 WSW 20 33 11 18 - - 0.0

Latest Capital City Observations: Canberra | Sydney | Melbourne | Brisbane | Adelaide | Perth | Hobart | Darwin

Other Formats:

Comma delimited format used in spreadsheet applications
http://www.bom.gov.au/fwo/IDW60901/IDW60901.95610.axf

JavaScript Object Notation format (JSON) in row-major order
http://www.bom.gov.au/fwo/IDW60901/IDW60901.95610.json